Time;durP1;ratioP1;P1;durP2;ratioP2;P2;SDS_P1;SDS_P2;PMS_P1;PMS_P2;Temp;Humidity;BMP_temperature;BMP_pressure;BME280_temperature;BME280_humidity;BME280_pressure;Samples;Min_cycle;Max_cycle;Signal;HPM_P1;HPM_P2
2022/12/05 00:01:23;;;;;;;;;;;4.70;99.90;;;;;;4994336;28;19925;-77
2022/12/05 00:03:50;;;;;;;;;;;4.40;99.90;;;;;;5027486;28;19925;-77
2022/12/05 00:06:16;;;;;;;;;;;4.40;99.90;;;;;;4995168;28;19921;-76
2022/12/05 00:08:42;;;;;;;;;;;4.60;99.90;;;;;;5047826;28;19929;-76
2022/12/05 00:11:13;;;;;;;;;;;4.50;99.90;;;;;;5031502;28;20282;-77
2022/12/05 00:13:39;;;;;;;;;;;4.50;99.90;;;;;;5047482;28;19925;-76
2022/12/05 00:16:13;;;;;;;;;;;4.50;99.90;;;;;;5047099;28;19939;-76
2022/12/05 00:18:38;;;;;;;;;;;4.50;99.90;;;;;;5031042;28;19925;-77
2022/12/05 00:21:05;;;;;;;;;;;4.50;99.90;;;;;;5047535;28;19932;-77
2022/12/05 00:23:31;;;;;;;;;;;4.50;99.90;;;;;;5030721;28;19995;-77
2022/12/05 00:25:56;;;;;;;;;;;4.60;99.90;;;;;;5030402;28;20046;-77
2022/12/05 00:28:22;;;;;;;;;;;4.60;99.90;;;;;;5030304;28;19929;-77
2022/12/05 00:30:47;;;;;;;;;;;4.60;99.90;;;;;;5047224;28;19925;-77
2022/12/05 00:33:13;;;;;;;;;;;4.60;99.90;;;;;;5047041;28;20279;-77
2022/12/05 00:35:38;;;;;;;;;;;4.60;99.90;;;;;;5030407;28;19925;-77
2022/12/05 00:38:04;;;;;;;;;;;4.60;99.90;;;;;;5063745;28;20354;-77
2022/12/05 00:40:29;;;;;;;;;;;4.60;99.90;;;;;;5046718;28;19994;-78
2022/12/05 00:42:55;;;;;;;;;;;4.60;99.90;;;;;;5063631;28;19936;-77
2022/12/05 00:45:21;;;;;;;;;;;4.60;99.90;;;;;;5030268;28;19925;-77
2022/12/05 00:47:46;;;;;;;;;;;4.60;99.90;;;;;;5030324;28;19926;-76
2022/12/05 00:50:12;;;;;;;;;;;4.60;99.90;;;;;;5046206;28;20400;-77
2022/12/05 00:52:37;;;;;;;;;;;4.60;99.90;;;;;;5029734;28;20027;-77
2022/12/05 00:55:03;;;;;;;;;;;4.70;99.90;;;;;;5063443;28;19975;-76
2022/12/05 00:57:29;;;;;;;;;;;4.70;99.90;;;;;;5029651;28;20280;-78
2022/12/05 00:59:54;;;;;;;;;;;4.70;99.90;;;;;;5030085;28;19971;-77
2022/12/05 01:02:20;;;;;;;;;;;4.60;99.90;;;;;;5046191;28;19987;-77
2022/12/05 01:04:45;;;;;;;;;;;4.70;99.90;;;;;;5063267;28;19995;-77
2022/12/05 01:07:11;;;;;;;;;;;4.70;99.90;;;;;;5012798;28;20008;-77
2022/12/05 01:09:37;;;;;;;;;;;4.70;99.90;;;;;;5029667;28;19932;-77
2022/12/05 01:12:02;;;;;;;;;;;4.70;99.90;;;;;;5046573;28;20093;-77
2022/12/05 01:14:28;;;;;;;;;;;4.70;99.90;;;;;;5046117;28;19932;-76
2022/12/05 01:16:54;;;;;;;;;;;4.70;99.90;;;;;;5062716;28;19975;-77
2022/12/05 01:19:30;;;;;;;;;;;4.80;99.90;;;;;;5029454;28;19936;-77
2022/12/05 01:21:55;;;;;;;;;;;4.80;99.90;;;;;;5029775;28;20006;-77
2022/12/05 01:24:21;;;;;;;;;;;4.80;99.90;;;;;;5045666;28;20015;-77
2022/12/05 01:26:47;;;;;;;;;;;4.80;99.90;;;;;;4997025;28;19948;-78
2022/12/05 01:29:14;;;;;;;;;;;4.90;99.90;;;;;;5046883;28;19925;-78
2022/12/05 01:31:40;;;;;;;;;;;4.90;99.90;;;;;;5045991;28;19933;-78
2022/12/05 01:34:07;;;;;;;;;;;4.90;99.90;;;;;;5029412;28;20020;-77
2022/12/05 01:36:33;;;;;;;;;;;5.00;99.90;;;;;;5045852;28;19972;-77
2022/12/05 01:38:59;;;;;;;;;;;5.00;99.90;;;;;;5046360;28;19925;-77
2022/12/05 01:41:26;;;;;;;;;;;5.00;99.90;;;;;;5029116;28;19925;-78
2022/12/05 01:44:00;;;;;;;;;;;5.00;99.90;;;;;;4996284;28;20023;-76
2022/12/05 01:46:26;;;;;;;;;;;5.10;99.90;;;;;;5029108;28;19931;-77
2022/12/05 01:48:54;;;;;;;;;;;5.00;99.90;;;;;;5012361;28;20382;-77
2022/12/05 01:51:20;;;;;;;;;;;5.10;99.90;;;;;;5045639;28;19980;-77
2022/12/05 01:53:45;;;;;;;;;;;5.10;99.90;;;;;;5029055;28;19991;-77
2022/12/05 01:56:11;;;;;;;;;;;5.20;99.90;;;;;;5012478;28;19934;-77
2022/12/05 01:58:40;;;;;;;;;;;5.10;99.90;;;;;;5028977;28;19968;-77
2022/12/05 02:01:07;;;;;;;;;;;5.10;99.90;;;;;;4996387;28;20404;-77
2022/12/05 02:03:34;;;;;;;;;;;5.20;99.90;;;;;;5045541;28;19984;-77
2022/12/05 02:06:00;;;;;;;;;;;5.20;99.90;;;;;;5018264;28;20279;-77
2022/12/05 02:08:27;;;;;;;;;;;5.20;99.90;;;;;;4973076;28;20324;-78
2022/12/05 02:10:54;;;;;;;;;;;5.10;99.90;;;;;;4975488;28;20423;-76
2022/12/05 02:13:39;;;;;;;;;;;5.10;99.90;;;;;;5023763;28;19930;-76
2022/12/05 02:16:08;;;;;;;;;;;5.20;99.90;;;;;;4989712;28;19926;-77
2022/12/05 02:18:44;;;;;;;;;;;5.10;99.90;;;;;;5022018;28;19933;-76
2022/12/05 02:21:21;;;;;;;;;;;5.10;99.90;;;;;;5006110;28;19980;-77
2022/12/05 02:23:56;;;;;;;;;;;5.10;99.90;;;;;;5022461;28;19926;-77
2022/12/05 02:26:41;;;;;;;;;;;5.10;99.90;;;;;;5021361;28;19929;-77
2022/12/05 02:29:32;;;;;;;;;;;5.10;99.90;;;;;;5004878;28;19973;-77
2022/12/05 02:32:01;;;;;;;;;;;5.10;99.90;;;;;;5022354;28;19926;-78
2022/12/05 02:34:30;;;;;;;;;;;5.10;99.90;;;;;;5021661;28;20406;-77
2022/12/05 02:37:01;;;;;;;;;;;5.10;99.90;;;;;;5021566;28;19926;-77
2022/12/05 02:39:39;;;;;;;;;;;5.10;99.90;;;;;;5021906;28;19926;-77
2022/12/05 02:42:11;;;;;;;;;;;5.10;99.90;;;;;;5005506;28;19926;-77
2022/12/05 02:44:42;;;;;;;;;;;5.00;99.90;;;;;;5021859;28;19925;-77
2022/12/05 02:47:08;;;;;;;;;;;5.10;99.90;;;;;;5005237;28;20264;-77
2022/12/05 02:49:36;;;;;;;;;;;5.10;99.90;;;;;;5021306;28;19926;-77
2022/12/05 02:52:03;;;;;;;;;;;5.10;99.90;;;;;;5021873;28;19965;-77
2022/12/05 02:54:32;;;;;;;;;;;5.20;99.90;;;;;;5021404;28;20359;-77
2022/12/05 02:56:59;;;;;;;;;;;5.00;99.90;;;;;;4988689;28;19926;-77
2022/12/05 02:59:24;;;;;;;;;;;5.00;99.90;;;;;;5005401;28;19975;-77
2022/12/05 03:01:50;;;;;;;;;;;5.20;99.90;;;;;;4988829;28;19977;-77
2022/12/05 03:04:17;;;;;;;;;;;5.00;99.90;;;;;;5021967;28;19926;-78
2022/12/05 03:06:48;;;;;;;;;;;5.00;99.90;;;;;;5020328;28;19933;-78
2022/12/05 03:09:18;;;;;;;;;;;5.00;99.90;;;;;;5027979;28;19932;-78
2022/12/05 03:11:46;;;;;;;;;;;5.00;99.90;;;;;;5044526;28;19933;-77
2022/12/05 03:14:13;;;;;;;;;;;5.00;99.90;;;;;;5011783;28;20398;-77
2022/12/05 03:16:43;;;;;;;;;;;5.00;99.90;;;;;;5043812;28;19927;-78
2022/12/05 03:19:13;;;;;;;;;;;5.00;99.90;;;;;;5028142;28;19925;-77
2022/12/05 03:21:42;;;;;;;;;;;5.00;99.90;;;;;;5027403;28;19978;-77
2022/12/05 03:24:13;;;;;;;;;;;5.00;99.90;;;;;;5044439;28;19926;-78
2022/12/05 03:26:38;;;;;;;;;;;5.00;99.90;;;;;;5044405;28;19973;-78
2022/12/05 03:29:21;;;;;;;;;;;5.00;99.90;;;;;;5061289;28;19991;-78
2022/12/05 03:32:10;;;;;;;;;;;5.00;99.90;;;;;;5027523;28;19931;-79
2022/12/05 03:34:47;;;;;;;;;;;5.00;99.90;;;;;;5007795;28;19948;-79
2022/12/05 03:37:18;;;;;;;;;;;4.90;99.90;;;;;;5027485;28;19929;-80
2022/12/05 03:39:46;;;;;;;;;;;4.90;99.90;;;;;;5027725;28;19945;-79
2022/12/05 03:42:12;;;;;;;;;;;4.90;99.90;;;;;;5047313;28;19968;-78
2022/12/05 03:44:44;;;;;;;;;;;4.90;99.90;;;;;;5031399;28;19958;-77
2022/12/05 03:47:18;;;;;;;;;;;4.90;99.90;;;;;;5031237;28;19998;-76
2022/12/05 03:49:46;;;;;;;;;;;4.90;99.90;;;;;;5047526;28;19925;-76
2022/12/05 03:52:12;;;;;;;;;;;4.90;99.90;;;;;;5014700;28;19992;-76
2022/12/05 03:54:40;;;;;;;;;;;4.90;99.90;;;;;;5030915;28;20258;-77
2022/12/05 03:57:08;;;;;;;;;;;4.90;99.90;;;;;;4998245;28;19925;-77
2022/12/05 03:59:34;;;;;;;;;;;4.90;99.90;;;;;;5064254;28;19948;-77
2022/12/05 04:02:02;;;;;;;;;;;4.90;99.90;;;;;;5064661;27;20362;-77
2022/12/05 04:04:30;;;;;;;;;;;4.90;99.90;;;;;;5047701;28;19933;-77
2022/12/05 04:06:56;;;;;;;;;;;4.90;99.90;;;;;;5028869;28;19930;-76
2022/12/05 04:09:32;;;;;;;;;;;4.90;99.90;;;;;;5026236;28;20291;-77
2022/12/05 04:12:00;;;;;;;;;;;4.90;99.90;;;;;;5027959;28;19926;-77
2022/12/05 04:14:32;;;;;;;;;;;4.90;99.90;;;;;;5025603;28;20064;-77
2022/12/05 04:17:11;;;;;;;;;;;4.90;99.90;;;;;;5024220;28;19925;-77
2022/12/05 04:22:26;;;;;;;;;;;4.90;99.90;;;;;;5023761;28;19965;-77
2022/12/05 04:27:47;;;;;;;;;;;4.90;99.90;;;;;;5024136;28;20025;-77
2022/12/05 04:30:15;;;;;;;;;;;4.90;99.90;;;;;;5024064;28;19936;-77
2022/12/05 04:32:43;;;;;;;;;;;4.90;99.90;;;;;;5007313;28;19925;-77
2022/12/05 04:35:12;;;;;;;;;;;5.00;99.90;;;;;;5023739;28;19926;-78
2022/12/05 04:37:41;;;;;;;;;;;4.90;99.90;;;;;;5023402;28;19926;-78
2022/12/05 04:40:10;;;;;;;;;;;5.20;99.90;;;;;;5024098;28;19937;-78
2022/12/05 04:42:36;;;;;;;;;;;4.90;99.90;;;;;;5023768;28;19926;-78
2022/12/05 04:45:05;;;;;;;;;;;4.90;99.90;;;;;;5023762;28;19930;-79
2022/12/05 04:47:34;;;;;;;;;;;5.00;99.90;;;;;;5025377;28;20349;-79
2022/12/05 04:50:01;;;;;;;;;;;5.00;99.90;;;;;;5009010;28;20096;-78
2022/12/05 04:52:27;;;;;;;;;;;5.00;99.90;;;;;;4975856;28;19926;-78
2022/12/05 04:55:00;;;;;;;;;;;5.00;99.90;;;;;;5024684;28;19933;-78
2022/12/05 04:57:32;;;;;;;;;;;5.00;99.90;;;;;;5024941;28;19926;-78
2022/12/05 04:59:57;;;;;;;;;;;5.00;99.90;;;;;;5007924;28;19926;-78
2022/12/05 05:02:36;;;;;;;;;;;5.00;99.90;;;;;;4974860;28;19984;-77
2022/12/05 05:05:05;;;;;;;;;;;5.00;99.90;;;;;;5006510;28;19930;-77
2022/12/05 05:07:31;;;;;;;;;;;5.00;99.90;;;;;;5045975;28;20403;-78
2022/12/05 05:09:56;;;;;;;;;;;5.00;99.90;;;;;;5045801;28;20017;-77
2022/12/05 05:12:22;;;;;;;;;;;5.00;99.90;;;;;;5029716;28;19929;-77
2022/12/05 05:14:47;;;;;;;;;;;5.00;99.90;;;;;;5062762;28;20324;-77
2022/12/05 05:17:13;;;;;;;;;;;5.50;99.90;;;;;;5046376;28;20379;-77
2022/12/05 05:19:39;;;;;;;;;;;5.00;99.90;;;;;;5046532;28;20405;-77
2022/12/05 05:22:04;;;;;;;;;;;5.00;99.90;;;;;;5029314;28;19985;-77
2022/12/05 05:24:30;;;;;;;;;;;5.00;99.90;;;;;;5046298;28;19932;-77
2022/12/05 05:26:55;;;;;;;;;;;5.00;99.90;;;;;;5045517;28;20058;-77
2022/12/05 05:29:21;;;;;;;;;;;5.20;99.90;;;;;;5030376;28;19930;-77
2022/12/05 05:31:46;;;;;;;;;;;5.00;99.90;;;;;;5046013;28;20024;-76
2022/12/05 05:34:14;;;;;;;;;;;5.00;99.90;;;;;;5062873;28;19929;-77
2022/12/05 05:36:40;;;;;;;;;;;5.00;99.90;;;;;;5029524;28;19925;-77
2022/12/05 05:39:09;;;;;;;;;;;5.00;99.90;;;;;;5045811;28;20290;-78
2022/12/05 05:41:35;;;;;;;;;;;5.00;99.90;;;;;;5013139;28;19932;-78
2022/12/05 05:44:01;;;;;;;;;;;5.00;99.90;;;;;;5012919;28;20349;-77
2022/12/05 05:46:28;;;;;;;;;;;5.00;99.90;;;;;;5029682;28;19925;-77
2022/12/05 05:48:54;;;;;;;;;;;5.00;99.90;;;;;;5045655;28;19937;-77
2022/12/05 05:51:20;;;;;;;;;;;5.00;99.90;;;;;;5030091;28;19932;-78
2022/12/05 05:53:46;;;;;;;;;;;5.00;99.90;;;;;;5012784;28;19932;-78
2022/12/05 05:56:13;;;;;;;;;;;5.00;99.90;;;;;;5045452;28;19929;-78
2022/12/05 05:58:38;;;;;;;;;;;5.00;99.90;;;;;;5045930;28;19932;-78
2022/12/05 06:01:08;;;;;;;;;;;5.00;99.90;;;;;;5044235;28;20318;-78
2022/12/05 06:03:34;;;;;;;;;;;5.00;99.90;;;;;;5028535;28;19925;-78
2022/12/05 06:06:01;;;;;;;;;;;5.10;99.90;;;;;;5028831;28;20294;-79
2022/12/05 06:08:31;;;;;;;;;;;5.00;99.90;;;;;;5030015;28;19931;-79
2022/12/05 06:10:56;;;;;;;;;;;5.00;99.90;;;;;;5028808;28;19932;-78
2022/12/05 06:13:22;;;;;;;;;;;5.00;99.90;;;;;;5018458;28;20015;-79
2022/12/05 06:15:48;;;;;;;;;;;5.00;99.90;;;;;;5016088;28;19976;-79
2022/12/05 06:18:13;;;;;;;;;;;5.10;99.90;;;;;;5045849;28;19926;-78
2022/12/05 06:20:39;;;;;;;;;;;5.10;99.90;;;;;;5029065;28;19925;-78
2022/12/05 06:23:04;;;;;;;;;;;5.00;99.90;;;;;;5012420;28;19925;-79
2022/12/05 06:25:30;;;;;;;;;;;5.00;99.90;;;;;;5029413;28;19932;-78
2022/12/05 06:27:56;;;;;;;;;;;5.10;99.90;;;;;;5028309;28;20117;-77
2022/12/05 06:30:21;;;;;;;;;;;5.10;99.90;;;;;;5062021;28;19936;-78
2022/12/05 06:32:47;;;;;;;;;;;5.50;99.90;;;;;;5062377;28;20286;-78
2022/12/05 06:35:15;;;;;;;;;;;5.00;99.90;;;;;;5045179;28;20275;-79
2022/12/05 06:37:44;;;;;;;;;;;5.10;99.90;;;;;;5012014;28;20374;-78
2022/12/05 06:40:11;;;;;;;;;;;5.10;99.90;;;;;;5044777;28;20290;-80
2022/12/05 06:42:36;;;;;;;;;;;5.10;99.90;;;;;;4996045;28;19925;-79
2022/12/05 06:45:02;;;;;;;;;;;5.10;99.90;;;;;;5061350;28;19936;-79
2022/12/05 06:47:28;;;;;;;;;;;5.10;99.90;;;;;;5012169;28;19929;-80
2022/12/05 06:49:54;;;;;;;;;;;5.10;99.90;;;;;;5044830;28;20412;-79
2022/12/05 06:52:19;;;;;;;;;;;5.10;99.90;;;;;;5061291;28;19925;-80
2022/12/05 06:54:45;;;;;;;;;;;5.00;99.90;;;;;;5061881;28;20019;-79
2022/12/05 06:57:11;;;;;;;;;;;5.00;99.90;;;;;;5027714;28;19947;-79
2022/12/05 06:59:37;;;;;;;;;;;5.00;99.90;;;;;;5028290;28;19929;-79
2022/12/05 07:02:06;;;;;;;;;;;5.10;99.90;;;;;;5044476;28;20016;-79
2022/12/05 07:04:31;;;;;;;;;;;5.10;99.90;;;;;;5011900;28;20401;-78
2022/12/05 07:06:57;;;;;;;;;;;5.10;99.90;;;;;;5027729;28;19925;-78
2022/12/05 07:09:44;;;;;;;;;;;5.10;99.90;;;;;;5011543;28;19932;-79
2022/12/05 07:12:11;;;;;;;;;;;5.10;99.90;;;;;;5044765;28;19950;-72
2022/12/05 07:14:36;;;;;;;;;;;5.10;99.90;;;;;;5028558;28;20278;-78
2022/12/05 07:17:02;;;;;;;;;;;5.10;99.90;;;;;;5047962;28;19929;-76
2022/12/05 07:19:27;;;;;;;;;;;5.10;99.90;;;;;;5047996;28;19925;-77
2022/12/05 07:21:53;;;;;;;;;;;5.10;99.90;;;;;;5031715;28;19925;-77
2022/12/05 07:24:18;;;;;;;;;;;5.20;99.90;;;;;;5048064;28;20030;-77
2022/12/05 07:26:44;;;;;;;;;;;5.20;99.90;;;;;;5047926;28;19976;-77
2022/12/05 07:29:10;;;;;;;;;;;5.10;99.90;;;;;;5047742;28;19925;-77
2022/12/05 07:31:35;;;;;;;;;;;5.20;99.90;;;;;;5014406;28;19990;-78
2022/12/05 07:34:01;;;;;;;;;;;5.60;99.90;;;;;;5015238;28;19931;-79
2022/12/05 07:36:27;;;;;;;;;;;5.20;99.90;;;;;;5048268;28;20023;-76
2022/12/05 07:38:56;;;;;;;;;;;5.20;99.90;;;;;;5047866;28;19926;-77
2022/12/05 07:41:23;;;;;;;;;;;5.20;99.90;;;;;;5047331;28;19933;-77
2022/12/05 07:43:49;;;;;;;;;;;5.20;99.90;;;;;;5048193;28;20316;-78
2022/12/05 07:46:16;;;;;;;;;;;5.40;99.90;;;;;;5047744;28;19925;-78
2022/12/05 07:48:41;;;;;;;;;;;5.20;99.90;;;;;;5047821;28;19925;-78
2022/12/05 07:51:08;;;;;;;;;;;5.30;99.90;;;;;;5030632;28;19962;-75
2022/12/05 07:53:34;;;;;;;;;;;5.20;99.90;;;;;;5014038;28;20007;-76
2022/12/05 07:56:00;;;;;;;;;;;5.20;99.90;;;;;;5046263;28;19925;-77
2022/12/05 07:58:30;;;;;;;;;;;5.30;99.90;;;;;;5029598;28;20015;-76
2022/12/05 08:00:57;;;;;;;;;;;5.30;99.90;;;;;;5029893;28;19932;-75
2022/12/05 08:03:22;;;;;;;;;;;5.30;99.90;;;;;;5041974;28;19986;-76
2022/12/05 08:05:48;;;;;;;;;;;5.30;99.90;;;;;;5045049;28;19925;-75
2022/12/05 08:08:13;;;;;;;;;;;5.30;99.90;;;;;;5029937;28;20449;-76
2022/12/05 08:10:39;;;;;;;;;;;5.30;99.90;;;;;;5046660;28;19987;-77
2022/12/05 08:13:06;;;;;;;;;;;5.30;99.90;;;;;;5044769;28;19925;-76
2022/12/05 08:15:33;;;;;;;;;;;5.30;99.90;;;;;;5016806;28;19982;-78
2022/12/05 08:17:58;;;;;;;;;;;5.30;99.90;;;;;;5046111;28;19925;-77
2022/12/05 08:20:24;;;;;;;;;;;5.30;99.90;;;;;;5029967;28;19931;-78
2022/12/05 08:22:51;;;;;;;;;;;5.30;99.90;;;;;;5047036;28;19936;-79
2022/12/05 08:25:16;;;;;;;;;;;5.30;99.90;;;;;;5046146;28;20370;-76
2022/12/05 08:27:42;;;;;;;;;;;5.30;99.90;;;;;;5044893;28;19936;-78
2022/12/05 08:30:08;;;;;;;;;;;5.30;99.90;;;;;;5028685;28;19929;-77
2022/12/05 08:32:33;;;;;;;;;;;5.40;99.90;;;;;;5029001;28;19932;-77
2022/12/05 08:34:59;;;;;;;;;;;5.30;99.90;;;;;;5063113;28;19933;-76
2022/12/05 08:37:24;;;;;;;;;;;5.30;99.90;;;;;;5030297;28;19972;-76
2022/12/05 08:39:50;;;;;;;;;;;5.30;99.90;;;;;;5011447;28;20417;-75
2022/12/05 08:42:16;;;;;;;;;;;5.30;99.90;;;;;;5042430;28;20018;-77
2022/12/05 08:44:41;;;;;;;;;;;5.30;99.90;;;;;;5028161;28;19929;-76
2022/12/05 08:47:07;;;;;;;;;;;5.20;99.90;;;;;;5043795;28;19986;-76
2022/12/05 08:49:32;;;;;;;;;;;5.30;99.90;;;;;;5061893;28;19974;-76
2022/12/05 08:51:58;;;;;;;;;;;5.30;99.90;;;;;;5045628;28;19925;-74
2022/12/05 08:54:23;;;;;;;;;;;5.30;99.90;;;;;;5062535;28;19925;-76
2022/12/05 08:56:50;;;;;;;;;;;5.20;99.90;;;;;;5028156;28;19925;-77
2022/12/05 08:59:15;;;;;;;;;;;5.40;99.90;;;;;;5012095;28;20295;-76
2022/12/05 09:01:41;;;;;;;;;;;5.20;99.90;;;;;;5046519;28;19929;-76
2022/12/05 09:04:07;;;;;;;;;;;5.30;99.90;;;;;;5013435;28;19970;-77
2022/12/05 09:06:33;;;;;;;;;;;5.30;99.90;;;;;;5045976;28;19921;-78
2022/12/05 09:09:01;;;;;;;;;;;5.30;99.90;;;;;;5045721;28;19973;-77
2022/12/05 09:11:27;;;;;;;;;;;5.30;99.90;;;;;;4996718;28;19925;-76
2022/12/05 09:13:54;;;;;;;;;;;5.30;99.90;;;;;;5029806;28;19931;-76
2022/12/05 09:16:21;;;;;;;;;;;5.30;99.90;;;;;;5045833;28;20036;-77
2022/12/05 09:18:47;;;;;;;;;;;5.30;99.90;;;;;;5012819;28;19925;-75
2022/12/05 09:21:14;;;;;;;;;;;5.30;99.90;;;;;;4997242;28;19929;-76
2022/12/05 09:23:40;;;;;;;;;;;5.30;99.90;;;;;;5029538;28;19968;-77
2022/12/05 09:26:06;;;;;;;;;;;5.30;99.90;;;;;;5029459;28;19975;-77
2022/12/05 09:28:33;;;;;;;;;;;5.30;99.90;;;;;;4995596;28;20462;-78
2022/12/05 09:31:00;;;;;;;;;;;5.30;99.90;;;;;;5046013;28;19932;-78
2022/12/05 09:33:26;;;;;;;;;;;5.30;99.90;;;;;;5044469;28;19925;-75
2022/12/05 09:35:52;;;;;;;;;;;5.30;99.90;;;;;;5028720;28;19929;-76
2022/12/05 09:38:18;;;;;;;;;;;5.30;99.90;;;;;;5043767;28;20008;-77
2022/12/05 09:40:44;;;;;;;;;;;5.30;99.90;;;;;;5043306;28;19921;-75
2022/12/05 09:43:24;;;;;;;;;;;5.30;99.90;;;;;;5012106;28;20286;-76
2022/12/05 09:45:56;;;;;;;;;;;5.30;99.90;;;;;;5045257;28;19929;-77
2022/12/05 09:48:22;;;;;;;;;;;5.40;99.90;;;;;;5027843;28;19929;-77
2022/12/05 09:50:51;;;;;;;;;;;5.30;99.90;;;;;;5027207;28;19960;-77
2022/12/05 09:53:26;;;;;;;;;;;5.30;99.90;;;;;;5045519;28;19925;-76
2022/12/05 09:55:54;;;;;;;;;;;5.30;99.90;;;;;;5009308;28;20290;-77
2022/12/05 09:58:26;;;;;;;;;;;5.40;99.90;;;;;;5026753;28;19948;-78
2022/12/05 10:00:57;;;;;;;;;;;5.30;99.90;;;;;;5044950;28;19929;-77
2022/12/05 10:03:55;;;;;;;;;;;5.40;99.90;;;;;;5012071;28;19926;-77
2022/12/05 10:06:24;;;;;;;;;;;5.30;99.90;;;;;;5050094;28;19929;-77
2022/12/05 10:09:08;;;;;;;;;;;5.30;99.90;;;;;;5044617;28;19929;-79
2022/12/05 10:12:00;;;;;;;;;;;5.30;99.90;;;;;;5028720;28;19925;-78
2022/12/05 10:14:44;;;;;;;;;;;5.40;99.90;;;;;;5012576;28;20367;-78
2022/12/05 10:17:20;;;;;;;;;;;5.40;99.90;;;;;;5043516;28;19925;-78
2022/12/05 10:19:46;;;;;;;;;;;5.30;99.90;;;;;;5044122;28;20374;-78
2022/12/05 10:22:15;;;;;;;;;;;5.30;99.90;;;;;;5015100;28;19936;-79
2022/12/05 10:24:46;;;;;;;;;;;5.30;99.90;;;;;;5029715;28;19929;-77
2022/12/05 10:27:17;;;;;;;;;;;5.30;99.90;;;;;;5044296;28;19962;-77
2022/12/05 10:29:44;;;;;;;;;;;5.40;99.90;;;;;;5043847;28;19925;-77
2022/12/05 10:32:09;;;;;;;;;;;5.30;99.90;;;;;;5045318;28;19932;-76
2022/12/05 10:34:39;;;;;;;;;;;5.30;99.90;;;;;;5044725;28;19925;-76
2022/12/05 10:37:08;;;;;;;;;;;5.20;99.90;;;;;;5029325;28;19976;-75
2022/12/05 10:39:34;;;;;;;;;;;5.20;99.90;;;;;;5026047;28;20285;-73
2022/12/05 10:42:00;;;;;;;;;;;5.20;99.90;;;;;;5027297;28;19976;-73
2022/12/05 10:44:25;;;;;;;;;;;5.20;99.90;;;;;;5043433;28;20367;-75
2022/12/05 10:46:51;;;;;;;;;;;5.20;99.90;;;;;;5041468;28;19973;-77
2022/12/05 10:49:17;;;;;;;;;;;5.30;99.90;;;;;;5025407;28;20618;-77
2022/12/05 10:51:43;;;;;;;;;;;5.20;99.90;;;;;;5043199;28;19936;-73
2022/12/05 10:54:23;;;;;;;;;;;5.30;99.90;;;;;;5005561;28;19925;-79
2022/12/05 10:56:49;;;;;;;;;;;5.20;99.90;;;;;;5026976;28;19925;-79
2022/12/05 10:59:17;;;;;;;;;;;5.30;99.90;;;;;;5010412;28;19925;-78
2022/12/05 11:01:56;;;;;;;;;;;5.20;99.90;;;;;;4990518;28;19932;-77
2022/12/05 11:04:29;;;;;;;;;;;5.20;99.90;;;;;;5044842;28;19930;-79
2022/12/05 11:07:01;;;;;;;;;;;5.30;99.90;;;;;;5040397;28;19928;-77
2022/12/05 11:09:29;;;;;;;;;;;5.30;99.90;;;;;;5027024;28;19932;-79
2022/12/05 11:12:13;;;;;;;;;;;5.30;99.90;;;;;;5025730;28;19925;-79
2022/12/05 11:14:39;;;;;;;;;;;5.30;99.90;;;;;;5043281;28;19933;-78
2022/12/05 11:17:05;;;;;;;;;;;5.30;99.90;;;;;;5043433;28;20509;-79
2022/12/05 11:19:36;;;;;;;;;;;5.30;99.90;;;;;;5027518;28;19993;-79
2022/12/05 11:22:02;;;;;;;;;;;5.30;99.90;;;;;;5046031;28;19925;-78
2022/12/05 11:24:37;;;;;;;;;;;5.30;99.90;;;;;;5039958;28;19921;-78
2022/12/05 11:27:15;;;;;;;;;;;5.20;99.90;;;;;;5025658;28;19925;-77
2022/12/05 11:29:41;;;;;;;;;;;5.30;99.90;;;;;;5059312;28;19932;-77
2022/12/05 11:32:18;;;;;;;;;;;5.20;99.90;;;;;;5025246;28;19994;-78
2022/12/05 11:35:04;;;;;;;;;;;5.20;99.90;;;;;;5044098;28;19925;-79
2022/12/05 11:37:34;;;;;;;;;;;5.20;99.90;;;;;;5010943;28;20285;-76
2022/12/05 11:40:00;;;;;;;;;;;5.20;99.90;;;;;;5040104;28;19947;-78
2022/12/05 11:42:41;;;;;;;;;;;5.30;99.90;;;;;;5007973;28;19921;-78
2022/12/05 11:45:23;;;;;;;;;;;5.30;99.90;;;;;;5028068;28;19925;-81
2022/12/05 11:47:55;;;;;;;;;;;5.20;99.90;;;;;;5043251;28;19932;-78
2022/12/05 11:50:35;;;;;;;;;;;5.30;99.90;;;;;;5059478;28;20015;-77
2022/12/05 11:53:04;;;;;;;;;;;5.30;99.90;;;;;;5024729;28;19979;-78
2022/12/05 11:55:33;;;;;;;;;;;5.20;99.90;;;;;;5040553;28;19925;-79
2022/12/05 11:58:05;;;;;;;;;;;5.80;99.90;;;;;;5040734;28;20024;-79
2022/12/05 12:00:50;;;;;;;;;;;5.20;99.90;;;;;;5041678;28;19925;-78
2022/12/05 12:03:25;;;;;;;;;;;5.20;99.90;;;;;;5027275;28;19926;-77
2022/12/05 12:05:54;;;;;;;;;;;5.20;99.90;;;;;;5044787;27;19975;-77
2022/12/05 12:08:31;;;;;;;;;;;5.20;99.90;;;;;;5047226;28;19925;-78
2022/12/05 12:11:03;;;;;;;;;;;5.20;99.90;;;;;;5032226;28;19925;-80
2022/12/05 12:13:28;;;;;;;;;;;5.20;99.90;;;;;;5031843;28;19932;-79
2022/12/05 12:15:54;;;;;;;;;;;5.20;99.90;;;;;;5063037;28;20012;-78
2022/12/05 12:18:34;;;;;;;;;;;5.20;99.90;;;;;;5062517;28;19932;-79
2022/12/05 12:21:00;;;;;;;;;;;5.20;99.90;;;;;;5043560;28;19932;-77
2022/12/05 12:23:25;;;;;;;;;;;5.20;99.90;;;;;;5060812;28;19925;-77
2022/12/05 12:25:58;;;;;;;;;;;5.30;99.90;;;;;;5059082;28;19935;-78
2022/12/05 12:28:44;;;;;;;;;;;5.20;99.90;;;;;;5044606;28;20266;-77
2022/12/05 12:31:10;;;;;;;;;;;5.20;99.90;;;;;;5048771;28;19951;-77
2022/12/05 12:33:39;;;;;;;;;;;5.20;99.90;;;;;;5049354;28;19926;-77
2022/12/05 12:36:23;;;;;;;;;;;5.20;99.90;;;;;;5031804;28;20316;-77
2022/12/05 12:38:57;;;;;;;;;;;5.30;99.90;;;;;;5046172;28;19974;-77
2022/12/05 12:41:26;;;;;;;;;;;5.30;99.90;;;;;;5013708;28;19978;-77
2022/12/05 12:43:54;;;;;;;;;;;5.20;99.90;;;;;;5029053;28;20071;-77
2022/12/05 12:46:20;;;;;;;;;;;5.30;99.90;;;;;;5063522;28;20019;-78
2022/12/05 12:48:48;;;;;;;;;;;5.30;99.90;;;;;;5062992;28;19968;-78
2022/12/05 12:51:14;;;;;;;;;;;5.30;99.90;;;;;;5063463;28;19987;-79
2022/12/05 12:53:49;;;;;;;;;;;5.30;99.90;;;;;;5046297;28;19925;-79
2022/12/05 12:56:14;;;;;;;;;;;5.30;99.90;;;;;;5044156;28;19921;-79
2022/12/05 12:58:50;;;;;;;;;;;5.30;99.90;;;;;;5043107;28;19933;-78
2022/12/05 13:01:34;;;;;;;;;;;5.30;99.90;;;;;;5046819;28;19925;-79
2022/12/05 13:04:11;;;;;;;;;;;5.20;99.90;;;;;;5029598;28;19926;-79
2022/12/05 13:06:39;;;;;;;;;;;5.30;99.90;;;;;;5012190;28;20015;-78
2022/12/05 13:09:10;;;;;;;;;;;5.30;99.90;;;;;;5045847;28;19925;-80
2022/12/05 13:11:39;;;;;;;;;;;5.30;99.90;;;;;;5046617;28;19932;-78
2022/12/05 13:14:08;;;;;;;;;;;5.30;99.90;;;;;;4997052;28;19932;-78
2022/12/05 13:16:36;;;;;;;;;;;5.10;99.90;;;;;;5029216;28;19987;-76
2022/12/05 13:19:04;;;;;;;;;;;5.30;99.90;;;;;;5027744;28;19936;-79
2022/12/05 13:21:30;;;;;;;;;;;5.30;99.90;;;;;;5046674;28;19988;-80
2022/12/05 13:24:02;;;;;;;;;;;5.30;99.90;;;;;;5012487;28;19976;-79
2022/12/05 13:26:28;;;;;;;;;;;5.30;99.90;;;;;;5044981;28;19968;-79
2022/12/05 13:28:58;;;;;;;;;;;5.30;99.90;;;;;;5027951;28;19972;-79
2022/12/05 13:31:40;;;;;;;;;;;5.30;99.90;;;;;;5045475;28;19925;-78
2022/12/05 13:34:26;;;;;;;;;;;5.20;99.90;;;;;;5046077;28;19974;-79
2022/12/05 13:42:23;;;;;;;;;;;5.20;99.90;;;;;;5027216;28;19921;-78
2022/12/05 13:44:50;;;;;;;;;;;5.30;99.90;;;;;;5029292;28;20334;-76
2022/12/05 13:47:21;;;;;;;;;;;5.30;99.90;;;;;;5046014;28;19987;-76
2022/12/05 13:49:56;;;;;;;;;;;5.20;99.90;;;;;;5029487;28;20024;-75
2022/12/05 13:52:24;;;;;;;;;;;5.20;99.90;;;;;;5028886;28;19974;-75
2022/12/05 13:54:56;;;;;;;;;;;5.30;99.90;;;;;;5044943;28;19925;-75
2022/12/05 13:57:43;;;;;;;;;;;5.20;99.90;;;;;;5044489;28;20444;-75
2022/12/05 14:00:09;;;;;;;;;;;5.20;99.90;;;;;;5040419;28;20468;-74
2022/12/05 14:02:37;;;;;;;;;;;5.30;99.90;;;;;;5045739;28;19928;-75
2022/12/05 14:05:24;;;;;;;;;;;5.20;99.90;;;;;;5043569;28;19928;-73
2022/12/05 14:07:53;;;;;;;;;;;5.20;99.90;;;;;;5011416;28;19924;-74
2022/12/05 14:10:19;;;;;;;;;;;5.20;99.90;;;;;;5028945;28;20027;-75
2022/12/05 14:12:49;;;;;;;;;;;5.20;99.90;;;;;;5045324;28;20027;-75
2022/12/05 14:15:35;;;;;;;;;;;5.20;99.90;;;;;;5044804;28;19926;-75
2022/12/05 14:18:03;;;;;;;;;;;5.20;99.90;;;;;;5044201;28;19929;-75
2022/12/05 14:20:45;;;;;;;;;;;5.10;99.90;;;;;;5045414;28;19921;-75
2022/12/05 14:23:20;;;;;;;;;;;5.20;99.90;;;;;;5028712;28;19975;-75
2022/12/05 14:25:50;;;;;;;;;;;5.20;99.90;;;;;;5060780;28;19925;-74
2022/12/05 14:28:24;;;;;;;;;;;5.20;99.90;;;;;;5045359;28;19921;-76
2022/12/05 14:31:08;;;;;;;;;;;5.20;99.90;;;;;;5041676;28;19932;-74
2022/12/05 14:33:34;;;;;;;;;;;5.10;99.90;;;;;;5043837;28;20362;-75
2022/12/05 14:36:07;;;;;;;;;;;5.20;99.90;;;;;;5010062;28;19937;-75
2022/12/05 14:38:35;;;;;;;;;;;5.10;99.90;;;;;;5044645;28;19928;-75
2022/12/05 14:41:23;;;;;;;;;;;5.20;99.90;;;;;;5029274;28;19970;-76
2022/12/05 14:43:53;;;;;;;;;;;5.20;99.90;;;;;;5029821;28;19925;-75
2022/12/05 14:46:23;;;;;;;;;;;5.20;99.90;;;;;;4996894;28;19944;-75
2022/12/05 14:48:49;;;;;;;;;;;5.20;99.90;;;;;;5028121;28;19973;-74
2022/12/05 14:51:30;;;;;;;;;;;5.20;99.90;;;;;;5028422;28;19976;-74
2022/12/05 14:54:14;;;;;;;;;;;5.10;99.90;;;;;;5044587;28;19921;-76